Погода Ариносна неделю

Минас-Жерайс, Бразилия

25 - 31 июля
  • 25июля
    Сегодня
    +12°
    +29°
    Ясно и безоблачно
    ВремяПогодаТемператураВлажностьДавлениеВетер, м/сВероятность осадков
    00:00Ясно и безоблачно+17°C70 %720 мм1.9 м/с5 %
    03:00Ясно и безоблачно+14°C67 %719 мм1.5 м/с5 %
    06:00Ясно и безоблачно+13°C69 %719 мм1.6 м/с5 %
    09:00Ясно и безоблачно+19°C50 %721 мм0.1 м/с5 %
    12:00Ясно и безоблачно+26°C40 %721 мм1.5 м/с5 %
    15:00Ясно и безоблачно+29°C33 %719 мм0.3 м/с5 %
    18:00Ясно и безоблачно+24°C43 %718 мм2.1 м/с5 %
    21:00Ясно и безоблачно+22°C45 %718 мм0.0 м/с5 %
  • 26июля
    Пятница
    +15°
    +31°
    Ясно и безоблачно
    ВремяПогодаТемператураВлажностьДавлениеВетер, м/сВероятность осадков
    00:00Ясно и безоблачно+19°C53 %718 мм1.1 м/с5 %
    03:00Ясно и безоблачно+16°C60 %717 мм1.1 м/с5 %
    06:00Ясно и безоблачно+13°C75 %717 мм1.2 м/с5 %
    09:00Ясно и безоблачно+19°C51 %720 мм0.0 м/с5 %
    12:00Ясно и безоблачно+27°C36 %720 мм1.8 м/с5 %
    15:00Ясно и безоблачно+31°C32 %717 мм0.3 м/с5 %
    18:00Ясно и безоблачно+26°C41 %717 мм2.1 м/с5 %
    21:00Ясно и безоблачно+23°C56 %718 мм0.0 м/с5 %
  • 27июля
    Суббота
    +16°
    +33°
    Практически безоблачно
    ВремяПогодаТемператураВлажностьДавлениеВетер, м/сВероятность осадков
    00:00Ясно и безоблачно+20°C60 %718 мм1.3 м/с5 %
    03:00Ясно и безоблачно+17°C70 %716 мм1.7 м/с5 %
    06:00Ясно и безоблачно+15°C72 %717 мм1.4 м/с5 %
    09:00Ясно и безоблачно+21°C58 %720 мм0.1 м/с5 %
    12:00Практически безоблачно+29°C46 %720 мм2.0 м/с5 %
    15:00Практически безоблачно+32°C36 %718 мм0.4 м/с5 %
    18:00Небольшая облачность+28°C44 %718 мм1.8 м/с5 %
    21:00Практически безоблачно+24°C53 %719 мм0.0 м/с5 %
  • 28июля
    Воскресенье
    +16°
    +33°
    Практически безоблачно
    ВремяПогодаТемператураВлажностьДавлениеВетер, м/сВероятность осадков
    00:00Ясно и безоблачно+21°C62 %718 мм1.0 м/с5 %
    03:00Практически безоблачно+18°C71 %717 мм1.6 м/с5 %
    06:00Небольшая облачность+17°C76 %718 мм1.4 м/с4 %
    09:00Практически безоблачно+22°C57 %721 мм0.1 м/с5 %
    12:00Практически безоблачно+30°C42 %720 мм2.2 м/с4 %
    15:00Практически безоблачно+33°C32 %719 мм0.5 м/с5 %
    18:00Пасмурно, сплошная облачность+29°C39 %719 мм2.9 м/с5 %
    21:00Практически безоблачно+25°C53 %719 мм0.0 м/с5 %
  • 29июля
    Понедельник
    +15°
    +33°
    Ясно и безоблачно
    ВремяПогодаТемператураВлажностьДавлениеВетер, м/сВероятность осадков
    00:00Практически безоблачно+23°C53 %719 мм0.3 м/с5 %
    03:00Практически безоблачно+19°C67 %718 мм1.5 м/с5 %
    06:00Ясно и безоблачно+16°C73 %719 мм1.5 м/с5 %
    09:00Ясно и безоблачно+22°C48 %721 мм0.1 м/с5 %
    12:00Ясно и безоблачно+30°C36 %720 мм1.7 м/с5 %
    15:00Ясно и безоблачно+33°C27 %719 мм0.5 м/с5 %
    18:00Практически безоблачно+28°C36 %718 мм1.8 м/с5 %
    21:00Ясно и безоблачно+25°C40 %718 мм0.1 м/с5 %
Мы используем cookies
Соглашаюсь